Time;durP1;ratioP1;P1;durP2;ratioP2;P2;SDS_P1;SDS_P2;PMS_P1;PMS_P2;Temp;Humidity;BMP_temperature;BMP_pressure;BME280_temperature;BME280_humidity;BME280_pressure;Samples;Min_cycle;Max_cycle;Signal;HPM_P1;HPM_P2
2023/07/03 00:01:52;;;;;;;8.47;3.27;;;;;;;16.40;71.59;100996.13;5089395;28;19916;-36
2023/07/03 00:04:18;;;;;;;;;;;;;;;16.49;69.95;100997.25;5089419;28;20266;-36
2023/07/03 00:06:45;;;;;;;9.60;3.10;;;;;;;16.39;71.21;100992.56;5088965;28;19916;-36
2023/07/03 00:09:11;;;;;;;11.50;3.65;;;;;;;16.29;71.73;100999.88;5088546;28;20081;-36
2023/07/03 00:11:36;;;;;;;;;;;;;;;16.37;71.47;100989.28;5077115;28;20044;-36
2023/07/03 00:14:01;;;;;;;11.10;3.20;;;;;;;16.30;71.27;100990.59;5075385;28;19916;-36
2023/07/03 00:16:27;;;;;;;;;;;;;;;16.36;70.74;100981.38;5075456;28;20273;-36
2023/07/03 00:18:52;;;;;;;13.55;3.78;;;;;;;16.16;72.50;100991.09;5075392;28;19912;-36
2023/07/03 00:21:17;;;;;;;;;;;;;;;16.27;71.47;100991.16;5076183;28;20028;-36
2023/07/03 00:23:43;;;;;;;11.90;3.30;;;;;;;16.12;73.12;100986.44;5075462;28;19935;-36
2023/07/03 00:26:08;;;;;;;;;;;;;;;16.22;71.92;100986.50;5075505;28;20345;-36
2023/07/03 00:28:33;;;;;;;11.07;3.30;;;;;;;16.05;73.05;100972.19;5075108;28;19915;-36
2023/07/03 00:30:58;;;;;;;;;;;;;;;16.22;72.01;100984.59;5075501;28;20028;-36
2023/07/03 00:33:24;;;;;;;12.10;3.93;;;;;;;16.08;73.44;100983.41;5074982;28;19954;-36
2023/07/03 00:35:49;;;;;;;;;;;;;;;16.16;72.01;100988.38;5075149;28;20017;-36
2023/07/03 00:38:14;;;;;;;8.07;3.08;;;;;;;16.05;73.19;100992.09;5075165;28;19999;-36
2023/07/03 00:40:39;;;;;;;;;;;;;;;16.14;72.03;100989.72;5075369;28;20070;-36
2023/07/03 00:43:05;;;;;;;15.53;4.27;;;;;;;16.00;73.55;100999.44;5075559;28;20046;-36
2023/07/03 00:45:31;;;;;;;;;;;;;;;16.13;72.49;100990.81;5075586;28;20344;-36
2023/07/03 00:47:57;;;;;;;11.57;3.47;;;;;;;15.94;74.89;100982.22;5074775;28;19909;-36
2023/07/03 00:50:22;;;;;;;;;;;;;;;16.03;73.18;100991.56;5075643;28;20039;-36
2023/07/03 00:52:56;;;;;;;9.30;3.63;;;;;;;15.91;73.80;100978.16;5073388;28;20234;-36
2023/07/03 00:55:22;;;;;;;9.05;3.13;;;;;;;15.94;75.19;100977.59;5074817;28;20495;-37
2023/07/03 00:57:47;;;;;;;10.93;2.72;;;;;;;15.87;75.59;100979.75;5075281;28;20498;-37
2023/07/03 01:00:13;;;;;;;;;;;;;;;16.00;74.62;100974.91;5074868;28;20048;-36
2023/07/03 01:02:44;;;;;;;8.93;3.25;;;;;;;15.86;75.99;100980.00;5074469;28;19912;-36
2023/07/03 01:05:25;;;;;;;13.10;4.03;;;;;;;15.90;75.11;100975.66;5074514;28;20455;-37
2023/07/03 01:07:52;;;;;;;11.88;3.65;;;;;;;15.89;76.55;100974.03;5074922;28;20063;-36
2023/07/03 01:10:23;;;;;;;14.30;4.00;;;;;;;15.87;75.98;100970.75;5074097;28;20500;-37
2023/07/03 01:12:55;;;;;;;13.20;4.00;;;;;;;15.80;76.80;100979.13;5074555;28;20404;-36
2023/07/03 01:15:27;;;;;;;13.63;3.95;;;;;;;15.79;77.33;100973.97;5074237;28;20043;-37
2023/07/03 01:17:55;;;;;;;12.75;4.10;;;;;;;15.79;76.69;100973.97;5074577;28;20046;-36
2023/07/03 01:20:24;;;;;;;12.25;3.28;;;;;;;15.78;77.27;100966.88;5074429;28;20362;-36
2023/07/03 01:23:15;;;;;;;13.60;4.30;;;;;;;15.82;76.98;100984.34;5072882;28;20039;-36
2023/07/03 01:25:43;;;;;;;11.55;4.05;;;;;;;15.84;77.30;100979.44;5074563;28;20024;-36
2023/07/03 01:28:12;;;;;;;13.65;3.50;;;;;;;15.74;79.63;100977.47;5074104;28;20071;-36
2023/07/03 01:30:40;;;;;;;11.90;4.18;;;;;;;15.76;77.97;100969.00;5073579;28;20480;-36
2023/07/03 01:33:07;;;;;;;11.23;3.42;;;;;;;15.75;77.96;100983.75;5074057;28;20032;-36
2023/07/03 01:35:33;;;;;;;12.25;3.55;;;;;;;15.76;78.15;100972.56;5073829;28;20362;-36
2023/07/03 01:38:01;;;;;;;;;;;;;;;15.86;77.51;100978.09;5074819;28;20035;-36
2023/07/03 01:40:27;;;;;;;12.88;3.80;;;;;;;15.76;77.98;100961.66;5073650;28;20005;-36
2023/07/03 01:42:55;;;;;;;16.63;4.40;;;;;;;15.79;78.78;100968.50;5073796;28;20044;-36
2023/07/03 01:45:21;;;;;;;10.55;3.58;;;;;;;15.74;79.63;100973.91;5074173;28;20121;-36
2023/07/03 01:47:46;;;;;;;;;;;;;;;15.86;77.41;100971.81;5073860;28;20025;-36
2023/07/03 01:50:20;;;;;;;15.17;4.10;;;;;;;15.78;79.05;100973.13;5073569;28;19915;-36
2023/07/03 01:53:02;;;;;;;15.93;3.95;;;;;;;15.77;79.04;100973.41;5073716;28;20259;-36
2023/07/03 01:55:34;;;;;;;15.77;4.10;;;;;;;15.70;81.04;100976.34;5073435;28;20029;-36
2023/07/03 01:58:07;;;;;;;15.75;4.30;;;;;;;15.65;80.79;100963.50;5073143;28;20040;-36
2023/07/03 02:00:46;;;;;;;12.57;3.70;;;;;;;15.68;80.38;100968.44;5073848;28;20080;-36
2023/07/03 02:03:34;;;;;;;11.23;3.45;;;;;;;15.68;80.10;100965.72;5073869;28;20107;-36
2023/07/03 02:06:04;;;;;;;14.52;3.88;;;;;;;15.69;81.13;100964.63;5073476;28;20107;-36
2023/07/03 02:08:31;;;;;;;13.95;3.63;;;;;;;15.63;81.14;100962.09;5073596;28;20082;-36
2023/07/03 02:10:56;;;;;;;15.02;3.70;;;;;;;15.70;81.20;100966.25;5073797;28;20032;-37
2023/07/03 02:13:22;;;;;;;;;;;;;;;15.76;81.06;100974.47;5073623;28;20047;-37
2023/07/03 02:15:47;;;;;;;13.32;3.63;;;;;;;15.64;82.09;100967.31;5073064;28;19951;-37
2023/07/03 02:18:17;;;;;;;;;;;;;;;15.76;80.24;100960.84;5073890;28;20039;-37
2023/07/03 02:20:49;;;;;;;17.42;4.10;;;;;;;15.60;83.04;100963.44;5073254;28;20412;-37
2023/07/03 02:23:15;;;;;;;14.27;4.55;;;;;;;15.59;83.18;100964.53;5072910;28;20115;-37
2023/07/03 02:25:43;;;;;;;17.52;5.00;;;;;;;15.53;83.71;100949.22;5073211;28;20068;-37
2023/07/03 02:28:08;;;;;;;12.98;4.28;;;;;;;15.53;85.14;100960.13;5072885;28;20035;-37
2023/07/03 02:30:34;;;;;;;;;;;;;;;15.61;83.78;100958.78;5073174;28;20028;-37
2023/07/03 02:32:59;;;;;;;15.83;4.07;;;;;;;15.49;85.59;100950.81;5072754;28;19912;-37
2023/07/03 02:35:24;;;;;;;;;;;;;;;15.57;83.41;100947.63;5073049;28;20155;-37
2023/07/03 02:37:50;;;;;;;17.23;5.00;;;;;;;15.43;87.05;100949.16;5073026;28;19952;-37
2023/07/03 02:40:16;;;;;;;13.07;4.25;;;;;;;15.37;87.50;100942.84;5072430;28;20373;-37
2023/07/03 02:42:41;;;;;;;;;;;;;;;15.47;86.30;100944.81;5073767;28;20201;-37
2023/07/03 02:45:07;;;;;;;19.02;5.03;;;;;;;15.31;88.31;100945.75;5072784;28;20294;-36
2023/07/03 02:47:36;;;;;;;;;;;;;;;15.40;86.81;100945.03;5073935;28;20025;-36
2023/07/03 02:50:03;;;;;;;16.98;4.53;;;;;;;15.19;89.61;100933.16;5073008;28;19908;-36
2023/07/03 02:52:29;;;;;;;15.07;5.43;;;;;;;15.20;90.21;100940.22;5073258;28;20038;-36
2023/07/03 02:54:54;;;;;;;;;;;;;;;15.23;88.29;100938.09;5073072;28;20111;-36
2023/07/03 02:57:19;;;;;;;17.00;4.70;;;;;;;15.11;90.65;100930.88;5072931;28;19951;-36
2023/07/03 02:59:45;;;;;;;18.25;4.80;;;;;;;15.07;90.93;100935.19;5072340;28;20746;-36
2023/07/03 03:02:10;;;;;;;;;;;;;;;15.17;89.50;100939.91;5073761;28;20033;-36
2023/07/03 03:04:35;;;;;;;18.63;5.13;;;;;;;15.08;91.69;100941.47;5072562;28;20348;-36
2023/07/03 03:07:01;;;;;;;;;;;;;;;15.14;89.21;100935.00;5072754;28;20099;-36
2023/07/03 03:09:26;;;;;;;15.67;4.67;;;;;;;14.98;92.13;100930.47;5072593;28;19919;-36
2023/07/03 03:11:51;;;;;;;15.35;5.15;;;;;;;14.93;92.45;100931.25;5072827;28;20259;-36
2023/07/03 03:14:16;;;;;;;;;;;;;;;15.02;90.48;100934.34;5072942;28;20027;-36
2023/07/03 03:16:42;;;;;;;14.93;4.53;;;;;;;14.85;93.01;100934.47;5072769;28;19913;-36
2023/07/03 03:19:07;;;;;;;14.23;4.50;;;;;;;14.82;93.44;100927.63;5072428;28;20795;-36
2023/07/03 03:21:32;;;;;;;15.45;4.75;;;;;;;14.62;93.87;100913.81;5073111;28;20271;-37
2023/07/03 03:23:58;;;;;;;17.17;4.57;;;;;;;14.74;94.40;100932.69;5072521;28;20028;-37
2023/07/03 03:26:23;;;;;;;17.30;4.75;;;;;;;14.61;95.05;100926.59;5073147;28;20259;-37
2023/07/03 03:28:48;;;;;;;18.58;5.28;;;;;;;14.67;95.57;100924.75;5072056;28;20028;-37
2023/07/03 03:31:14;;;;;;;;;;;;;;;14.79;93.15;100925.44;5072413;28;20086;-37
2023/07/03 03:33:39;;;;;;;16.03;5.23;;;;;;;14.53;96.60;100912.59;5072981;28;19908;-36
2023/07/03 03:36:04;;;;;;;14.98;4.43;;;;;;;14.57;96.81;100925.44;5072062;28;20282;-36
2023/07/03 03:38:30;;;;;;;;;;;;;;;14.72;95.18;100932.97;5072313;28;20036;-36
2023/07/03 03:40:57;;;;;;;15.13;4.97;;;;;;;14.63;97.15;100927.16;5072311;28;19919;-36
2023/07/03 03:43:23;;;;;;;14.77;5.10;;;;;;;14.65;97.49;100938.63;5072268;28;20282;-36
2023/07/03 03:45:58;;;;;;;;;;;;;;;14.70;95.59;100931.59;5074213;28;20537;-36
2023/07/03 03:48:25;;;;;;;17.88;5.15;;;;;;;14.59;98.80;100928.75;5075683;28;19999;-36
2023/07/03 03:50:51;;;;;;;16.65;4.93;;;;;;;14.52;99.21;100927.28;5076722;28;20074;-36
2023/07/03 03:53:16;;;;;;;;;;;;;;;14.66;96.11;100934.81;5076261;28;20028;-36
2023/07/03 03:55:42;;;;;;;15.23;4.43;;;;;;;14.57;99.25;100936.34;5076072;28;19913;-36
2023/07/03 03:58:08;;;;;;;;;;;;;;;14.63;96.97;100940.75;5075895;28;20020;-36
2023/07/03 04:00:34;;;;;;;20.65;5.45;;;;;;;14.48;99.80;100935.13;5076258;28;19920;-37
2023/07/03 04:03:00;;;;;;;21.65;5.57;;;;;;;14.44;100.00;100942.13;5076187;28;20062;-37
2023/07/03 04:05:25;;;;;;;;;;;;;;;14.54;97.85;100942.31;5076853;28;20354;-37
2023/07/03 04:07:51;;;;;;;14.43;4.67;;;;;;;14.52;100.00;100940.91;5075971;28;20412;-37
2023/07/03 04:10:16;;;;;;;;;;;;;;;14.56;99.40;100937.41;5076140;28;20119;-37
2023/07/03 04:12:41;;;;;;;16.90;5.55;;;;;;;14.39;100.00;100929.28;5075610;28;20375;-36
2023/07/03 04:15:07;;;;;;;;;;;;;;;14.50;100.00;100940.34;5075946;28;20117;-36
2023/07/03 04:17:32;;;;;;;21.63;5.72;;;;;;;14.44;100.00;100933.97;5076286;28;19920;-36
2023/07/03 04:19:58;;;;;;;18.92;5.80;;;;;;;14.38;100.00;100932.28;5075366;28;20418;-36
2023/07/03 04:22:23;;;;;;;18.05;4.78;;;;;;;14.47;100.00;100938.09;5075847;28;20097;-36
2023/07/03 04:24:48;;;;;;;22.42;4.97;;;;;;;14.35;100.00;100924.63;5075578;28;20085;-35
2023/07/03 04:27:14;;;;;;;17.80;4.65;;;;;;;14.50;100.00;100937.63;5075650;28;20105;-36
2023/07/03 04:29:40;;;;;;;;;;;;;;;14.58;100.00;100937.97;5075373;28;20507;-37
2023/07/03 04:32:06;;;;;;;19.45;4.72;;;;;;;14.43;100.00;100935.88;5075189;28;19928;-36
2023/07/03 04:34:31;;;;;;;20.33;5.60;;;;;;;14.46;100.00;100934.56;5075192;28;20107;-36
2023/07/03 04:36:56;;;;;;;;;;;;;;;14.57;100.00;100941.78;5075574;28;20036;-37
2023/07/03 04:39:23;;;;;;;14.77;4.97;;;;;;;14.56;100.00;100953.75;5075027;28;20253;-37
2023/07/03 04:41:48;;;;;;;17.63;5.25;;;;;;;14.49;100.00;100950.38;5075003;28;20263;-36
2023/07/03 04:44:13;;;;;;;;;;;;;;;14.66;100.00;100966.66;5075716;28;20028;-37
2023/07/03 04:46:39;;;;;;;20.53;5.40;;;;;;;14.59;100.00;100966.00;5074910;28;19909;-36
2023/07/03 04:49:05;;;;;;;;;;;;;;;14.72;100.00;100962.06;5075306;28;20633;-36
2023/07/03 04:51:32;;;;;;;21.98;5.30;;;;;;;14.58;100.00;100970.63;5074778;28;19908;-36
2023/07/03 04:54:01;;;;;;;19.98;5.38;;;;;;;14.65;100.00;100965.84;5074688;28;20029;-37
2023/07/03 04:56:27;;;;;;;17.77;5.32;;;;;;;14.62;100.00;100966.31;5074463;28;20544;-36
2023/07/03 04:58:53;;;;;;;17.73;5.60;;;;;;;14.64;100.00;100969.63;5074756;28;20139;-37
2023/07/03 05:01:18;;;;;;;;;;;;;;;14.73;100.00;100974.59;5075684;28;20056;-37
2023/07/03 05:03:43;;;;;;;16.45;5.63;;;;;;;14.65;100.00;100971.28;5075320;28;19958;-37
2023/07/03 05:06:10;;;;;;;20.95;4.97;;;;;;;14.51;100.00;100961.03;5074552;28;20028;-37
2023/07/03 05:08:35;;;;;;;18.35;5.72;;;;;;;14.67;100.00;100973.72;5074259;28;20476;-36
2023/07/03 05:11:01;;;;;;;;;;;;;;;14.77;100.00;100970.28;5075472;28;20021;-36
2023/07/03 05:13:27;;;;;;;14.90;5.60;;;;;;;14.72;100.00;100964.81;5074362;28;20444;-36
2023/07/03 05:15:53;;;;;;;13.93;4.47;;;;;;;14.79;100.00;100970.88;5075270;28;20027;-36
2023/07/03 05:18:19;;;;;;;18.15;5.05;;;;;;;14.78;100.00;100969.22;5073993;28;20492;-37
2023/07/03 05:20:44;;;;;;;;;;;;;;;14.94;100.00;100981.94;5074883;28;20020;-37
2023/07/03 05:23:13;;;;;;;12.83;4.47;;;;;;;14.88;100.00;100972.91;5074104;28;19916;-36
2023/07/03 05:25:39;;;;;;;25.20;6.40;;;;;;;14.78;100.00;100969.22;5074832;28;20316;-37
2023/07/03 05:28:04;;;;;;;;;;;;;;;14.96;100.00;100993.38;5074992;28;20054;-36
2023/07/03 05:30:29;;;;;;;21.58;5.57;;;;;;;14.89;100.00;100981.88;5074778;28;19909;-37
2023/07/03 05:32:54;;;;;;;;;;;;;;;15.00;100.00;100994.50;5074547;28;20024;-37
2023/07/03 05:35:20;;;;;;;18.85;5.13;;;;;;;15.01;100.00;100998.88;5074155;28;19908;-37
2023/07/03 05:37:45;;;;;;;;;;;;;;;15.09;100.00;100997.59;5075239;28;20043;-37
2023/07/03 05:40:14;;;;;;;17.33;4.93;;;;;;;15.08;100.00;100995.94;5074161;28;19935;-37
2023/07/03 05:42:40;;;;;;;18.35;5.65;;;;;;;15.04;100.00;101001.09;5074199;28;20266;-36
2023/07/03 05:45:06;;;;;;;;;;;;;;;15.14;100.00;100993.03;5074321;28;20029;-36
2023/07/03 05:47:32;;;;;;;17.70;5.68;;;;;;;15.09;100.00;101003.06;5073450;28;19909;-37
2023/07/03 05:49:58;;;;;;;;;;;;;;;15.19;100.00;100992.25;5074667;28;20119;-37
2023/07/03 05:52:23;;;;;;;19.48;5.78;;;;;;;15.09;100.00;100992.97;5073476;28;19912;-37
2023/07/03 05:54:48;;;;;;;;;;;;;;;15.21;100.00;100998.25;5074125;28;20029;-37
2023/07/03 05:57:14;;;;;;;17.77;4.90;;;;;;;15.15;100.00;101008.28;5072542;28;20373;-37
2023/07/03 05:59:40;;;;;;;20.23;5.88;;;;;;;15.09;100.00;101003.06;5074160;28;20376;-37
2023/07/03 06:02:10;;;;;;;;;;;;;;;15.19;100.00;101005.88;5074739;28;20124;-37
2023/07/03 06:04:35;;;;;;;17.10;4.88;;;;;;;15.13;100.00;101013.19;5073817;28;19912;-37
2023/07/03 06:07:01;;;;;;;;;;;;;;;15.23;100.00;101008.91;5073899;28;20032;-37
2023/07/03 06:09:28;;;;;;;15.88;5.18;;;;;;;15.18;100.00;101006.97;5072954;28;19967;-37
2023/07/03 06:11:53;;;;;;;16.55;5.78;;;;;;;15.12;100.00;101002.53;5073337;28;20039;-37
2023/07/03 06:14:19;;;;;;;;;;;;;;;15.26;100.00;101014.66;5074065;28;20021;-36
2023/07/03 06:16:47;;;;;;;16.30;4.88;;;;;;;15.14;100.00;101014.00;5073870;28;19999;-37
2023/07/03 06:19:13;;;;;;;16.88;5.75;;;;;;;15.18;100.00;101023.31;5073422;28;20056;-37
2023/07/03 06:21:39;;;;;;;20.05;5.60;;;;;;;15.17;100.00;101018.91;5074163;28;20024;-37
2023/07/03 06:24:05;;;;;;;;;;;;;;;15.28;100.00;101011.69;5073811;28;20349;-37
2023/07/03 06:26:33;;;;;;;16.17;4.80;;;;;;;15.12;100.00;101008.78;5073336;28;20008;-37
2023/07/03 06:28:59;;;;;;;18.27;5.18;;;;;;;15.20;100.00;101013.78;5072786;28;20031;-37
2023/07/03 06:31:24;;;;;;;14.38;4.72;;;;;;;15.22;100.00;101018.97;5073860;28;20110;-37
2023/07/03 06:33:50;;;;;;;;;;;;;;;15.36;100.00;101013.91;5073988;28;20488;-37
2023/07/03 06:36:20;;;;;;;15.80;4.87;;;;;;;15.35;100.00;101013.09;5073068;28;20353;-37
2023/07/03 06:38:56;;;;;;;20.08;5.47;;;;;;;15.39;100.00;101010.69;5073357;28;20758;-37
2023/07/03 06:41:24;;;;;;;20.48;6.18;;;;;;;15.45;100.00;101010.47;5073307;28;20107;-37
2023/07/03 06:43:49;;;;;;;15.63;4.95;;;;;;;15.53;100.00;101014.63;5072854;28;20411;-37
2023/07/03 06:46:15;;;;;;;;;;;;;;;15.68;100.00;101003.06;5073644;28;20024;-37
2023/07/03 06:48:41;;;;;;;17.30;5.75;;;;;;;15.64;100.00;101005.47;5072611;28;20340;-37
2023/07/03 06:51:09;;;;;;;15.90;5.47;;;;;;;15.75;100.00;101011.00;5073392;28;20054;-37
2023/07/03 06:53:35;;;;;;;17.38;4.93;;;;;;;15.74;100.00;100998.47;5072787;28;20039;-37
2023/07/03 06:56:00;;;;;;;;;;;;;;;15.85;100.00;101011.06;5073465;28;20028;-37
2023/07/03 06:58:27;;;;;;;17.88;5.57;;;;;;;15.73;100.00;101007.72;5072534;28;19916;-37
2023/07/03 07:00:52;;;;;;;14.10;4.97;;;;;;;15.69;100.00;101005.50;5072814;28;20067;-37
2023/07/03 07:03:18;;;;;;;;;;;;;;;15.80;100.00;101000.94;5105682;28;20052;-37
2023/07/03 07:05:43;;;;;;;14.30;4.25;;;;;;;15.70;100.00;101007.16;5072524;28;19912;-37
2023/07/03 07:08:16;;;;;;;;;;;;;;;15.81;100.00;101015.41;5073085;28;20123;-37
2023/07/03 07:10:42;;;;;;;18.48;5.40;;;;;;;15.75;100.00;101028.19;5072901;28;19919;-37
2023/07/03 07:13:08;;;;;;;18.33;4.50;;;;;;;15.73;100.00;101033.09;5072629;28;20082;-37
2023/07/03 07:15:36;;;;;;;;;;;;;;;15.83;100.00;101035.06;5073113;28;20025;-36
2023/07/03 07:18:02;;;;;;;19.42;4.97;;;;;;;15.68;100.00;101022.13;5072267;28;20318;-36
2023/07/03 07:20:27;;;;;;;;;;;;;;;15.81;100.00;101031.75;5074054;28;20037;-36
2023/07/03 07:22:52;;;;;;;11.37;4.40;;;;;;;15.81;100.00;101031.75;5077094;28;19916;-36
2023/07/03 07:25:18;;;;;;;;;;;;;;;15.88;100.00;101035.91;5077539;28;20255;-36
2023/07/03 07:27:43;;;;;;;17.60;4.38;;;;;;;15.91;99.32;101024.50;5076498;28;19912;-36
2023/07/03 07:30:09;;;;;;;;;;;;;;;16.02;99.31;101028.13;5076967;28;20033;-36
2023/07/03 07:32:34;;;;;;;14.00;4.28;;;;;;;16.03;98.88;101029.75;5076467;28;19912;-36
2023/07/03 07:34:59;;;;;;;;;;;;;;;16.14;97.65;101034.19;5076583;28;20028;-36
2023/07/03 07:37:25;;;;;;;15.23;4.18;;;;;;;16.18;95.96;101021.66;5076079;28;19919;-36
2023/07/03 07:39:50;;;;;;;;;;;;;;;16.39;96.36;101033.50;5076440;28;20021;-36
2023/07/03 07:42:15;;;;;;;16.23;4.17;;;;;;;16.56;94.47;101033.31;5076535;28;19956;-37
2023/07/03 07:44:40;;;;;;;;;;;;;;;16.81;94.84;101031.81;5076645;28;20281;-37
2023/07/03 07:47:06;;;;;;;17.17;4.75;;;;;;;16.95;91.77;101035.69;5076190;28;19913;-37
2023/07/03 07:49:31;;;;;;;;;;;;;;;17.06;91.40;101034.63;5076301;28;20038;-37
2023/07/03 07:51:57;;;;;;;17.10;4.65;;;;;;;17.09;88.36;101030.53;5076884;28;19912;-37
2023/07/03 07:54:22;;;;;;;;;;;;;;;17.18;89.83;101026.19;5076452;28;20170;-37
2023/07/03 07:56:47;;;;;;;12.63;3.65;;;;;;;17.06;87.50;101028.34;5076702;28;19912;-37
2023/07/03 07:59:12;;;;;;;;;;;;;;;17.09;87.59;101036.81;5076421;28;20091;-37
2023/07/03 08:01:38;;;;;;;14.10;3.40;;;;;;;16.91;86.34;101032.66;5076131;28;19912;-37
2023/07/03 08:04:03;;;;;;;;;;;;;;;16.97;87.17;101039.78;5076449;28;20742;-37
2023/07/03 08:06:29;;;;;;;11.82;3.70;;;;;;;16.81;86.40;101042.75;5076559;28;20098;-37
2023/07/03 08:08:54;;;;;;;;;;;;;;;16.87;86.85;101034.28;5076742;28;20415;-37
2023/07/03 08:11:19;;;;;;;13.17;3.80;;;;;;;16.80;87.18;101039.19;5076624;28;20316;-37
2023/07/03 08:13:45;;;;;;;;;;;;;;;16.88;86.55;101046.03;5075748;28;20580;-37
2023/07/03 08:16:11;;;;;;;12.80;3.72;;;;;;;16.85;85.69;101035.66;5075849;28;19912;-37
2023/07/03 08:18:36;;;;;;;;;;;;;;;16.95;85.46;101046.63;5075682;28;20457;-37
2023/07/03 08:21:02;;;;;;;11.85;3.53;;;;;;;16.88;84.21;101043.28;5075220;28;20283;-37
2023/07/03 08:23:29;;;;;;;;;;;;;;;16.96;85.32;101048.25;5075890;28;20118;-37
2023/07/03 08:25:54;;;;;;;;;;;;;;;16.92;84.60;101041.69;5075909;28;20054;-37
2023/07/03 08:28:21;;;;;;;13.45;3.40;;;;;;;16.81;84.43;101048.19;5075405;28;20003;-37
2023/07/03 08:30:47;;;;;;;10.73;3.83;;;;;;;16.73;83.41;101038.59;5075445;28;20032;-37
2023/07/03 08:33:13;;;;;;;;;;;;;;;16.83;82.36;101048.75;5075522;28;20044;-37
2023/07/03 08:35:40;;;;;;;12.48;3.25;;;;;;;16.84;81.72;101062.16;5075556;28;19919;-37
2023/07/03 08:38:06;;;;;;;10.85;3.42;;;;;;;16.93;80.55;101060.56;5074960;28;20404;-37
2023/07/03 08:40:31;;;;;;;;;;;;;;;17.06;82.05;101063.84;5075592;28;20418;-37
2023/07/03 08:42:59;;;;;;;15.15;3.08;;;;;;;17.02;80.92;101047.16;5075209;28;20003;-37
2023/07/03 08:45:41;;;;;;;15.70;3.67;;;;;;;17.10;81.39;101063.03;5075019;28;20032;-37
2023/07/03 08:48:12;;;;;;;10.35;2.92;;;;;;;17.09;79.73;101058.69;5075268;28;20089;-37
2023/07/03 08:50:38;;;;;;;14.57;3.83;;;;;;;17.10;81.85;101054.84;5075508;28;20056;-37
2023/07/03 08:53:04;;;;;;;;;;;;;;;17.25;79.92;101067.72;5076240;28;20060;-37
2023/07/03 08:55:37;;;;;;;11.48;3.15;;;;;;;17.17;79.55;101070.97;5074885;28;20348;-37
2023/07/03 08:58:02;;;;;;;11.90;3.33;;;;;;;17.25;78.60;101070.47;5075221;28;20377;-37
2023/07/03 09:00:32;;;;;;;;;;;;;;;17.40;79.09;101072.41;5076026;28;20047;-37
2023/07/03 09:03:23;;;;;;;10.35;3.38;;;;;;;17.38;77.70;101069.13;5074818;28;19913;-37
2023/07/03 09:06:27;;;;;;;10.30;3.20;;;;;;;17.58;78.12;101065.59;5073872;28;20043;-37
2023/07/03 09:09:16;;;;;;;16.35;3.63;;;;;;;17.77;76.39;101074.13;5052513;28;20044;-37
2023/07/03 09:11:49;;;;;;;9.80;2.78;;;;;;;17.90;74.27;101074.38;5052734;28;20052;-37
2023/07/03 09:14:22;;;;;;;11.35;3.38;;;;;;;18.06;74.62;101056.03;5067153;28;20044;-37
2023/07/03 09:16:47;;;;;;;12.18;3.28;;;;;;;18.15;72.07;101059.03;5074218;28;20063;-35
2023/07/03 09:19:21;;;;;;;14.25;3.30;;;;;;;18.18;72.00;101069.44;5073991;28;20056;-35
2023/07/03 09:21:51;;;;;;;10.15;3.40;;;;;;;18.05;71.03;101070.81;5075061;28;20024;-37
2023/07/03 09:24:30;;;;;;;7.25;2.60;;;;;;;17.98;71.99;101068.34;5074561;28;20049;-38
2023/07/03 09:27:19;;;;;;;13.27;4.00;;;;;;;17.92;71.79;101079.59;5074294;28;20513;-38
2023/07/03 09:29:46;;;;;;;10.68;3.28;;;;;;;17.67;71.77;101070.25;5074566;28;20028;-36
2023/07/03 09:32:21;;;;;;;9.63;3.63;;;;;;;17.59;72.21;101068.06;5074221;28;20025;-36
2023/07/03 09:35:13;;;;;;;11.80;3.42;;;;;;;17.58;74.20;101077.34;5074080;28;20020;-37
2023/07/03 09:37:42;;;;;;;11.50;3.45;;;;;;;17.52;74.65;101081.19;5074533;28;20024;-37
2023/07/03 09:40:19;;;;;;;12.25;3.42;;;;;;;17.35;75.71;101077.84;5074415;28;20478;-38
2023/07/03 09:42:44;;;;;;;;;;;;;;;17.53;75.85;101091.03;5074169;28;20021;-37
2023/07/03 09:45:16;;;;;;;11.40;3.40;;;;;;;17.35;75.95;101078.69;5073863;28;19915;-37
2023/07/03 09:47:50;;;;;;;10.82;3.70;;;;;;;17.29;75.56;101076.22;5073920;28;20100;-37
2023/07/03 09:50:22;;;;;;;12.68;3.72;;;;;;;17.36;76.29;101090.44;5073772;28;20028;-37
2023/07/03 09:52:47;;;;;;;11.93;3.30;;;;;;;17.32;76.07;101078.38;5074025;28;20077;-37
2023/07/03 09:55:15;;;;;;;10.43;3.60;;;;;;;17.32;77.20;101083.84;5073592;28;20028;-37
2023/07/03 09:57:41;;;;;;;9.70;3.00;;;;;;;17.35;77.68;101097.81;5074157;28;20028;-37
2023/07/03 10:00:14;;;;;;;9.40;3.42;;;;;;;17.29;79.26;101101.63;5073385;28;20044;-37
2023/07/03 10:02:42;;;;;;;10.93;3.40;;;;;;;17.38;80.04;101102.75;5073867;28;20487;-37
2023/07/03 10:05:13;;;;;;;11.48;3.42;;;;;;;17.55;79.59;101097.03;5073253;28;20032;-37
2023/07/03 10:07:43;;;;;;;9.55;2.92;;;;;;;17.79;79.04;101091.06;5074183;28;20024;-37
2023/07/03 10:10:13;;;;;;;13.02;3.70;;;;;;;17.95;77.91;101095.44;5073665;28;20115;-37
2023/07/03 10:12:52;;;;;;;8.40;2.85;;;;;;;18.13;78.05;101094.06;5073314;28;20033;-37
2023/07/03 10:15:25;;;;;;;12.73;3.95;;;;;;;18.26;77.33;101086.13;5073377;28;20084;-37
2023/07/03 10:17:56;;;;;;;10.23;3.17;;;;;;;18.29;77.46;101079.25;5072787;28;20052;-38
2023/07/03 10:20:27;;;;;;;12.63;3.42;;;;;;;18.33;75.28;101085.00;5074072;28;20113;-37
2023/07/03 10:22:56;;;;;;;11.95;3.53;;;;;;;18.25;75.19;101089.09;5073643;28;20043;-37
2023/07/03 10:25:28;;;;;;;12.30;3.15;;;;;;;18.21;74.71;101093.50;5073761;28;20033;-37
2023/07/03 10:27:58;;;;;;;9.77;3.00;;;;;;;18.14;71.82;101092.97;5073494;28;20056;-37
2023/07/03 10:30:26;;;;;;;11.50;3.28;;;;;;;18.22;72.61;101089.69;5073141;28;20043;-37
2023/07/03 10:32:54;;;;;;;9.32;3.53;;;;;;;18.65;70.06;101092.88;5073531;28;20116;-37
2023/07/03 10:35:24;;;;;;;9.57;3.63;;;;;;;19.00;69.60;101092.75;5072743;28;20033;-37
2023/07/03 10:38:06;;;;;;;10.82;3.40;;;;;;;19.47;69.83;101085.06;5073670;28;20025;-37
2023/07/03 10:40:37;;;;;;;7.80;3.25;;;;;;;19.75;65.56;101076.13;5073475;28;20023;-37
2023/07/03 10:43:05;;;;;;;11.77;3.72;;;;;;;20.06;64.83;101076.69;5072887;28;20178;-37
2023/07/03 10:45:34;;;;;;;11.63;3.85;;;;;;;19.94;63.42;101067.19;5073012;28;20117;-37
2023/07/03 10:48:14;;;;;;;11.30;3.63;;;;;;;19.82;65.97;101067.56;5073483;28;20237;-37
2023/07/03 10:50:43;;;;;;;11.75;2.88;;;;;;;19.51;62.21;101066.94;5072869;28;20040;-37
2023/07/03 10:53:19;;;;;;;8.38;2.70;;;;;;;19.32;61.53;101082.44;5072908;28;20021;-37
2023/07/03 10:56:00;;;;;;;9.73;2.78;;;;;;;19.08;60.26;101087.78;5073131;28;20029;-37
2023/07/03 10:58:32;;;;;;;10.98;2.88;;;;;;;18.95;60.52;101084.56;5073267;28;20158;-37
2023/07/03 11:01:06;;;;;;;8.65;2.20;;;;;;;18.87;60.30;101074.16;5072769;28;20111;-37
2023/07/03 11:03:42;;;;;;;14.10;2.60;;;;;;;18.93;58.76;101077.69;5073341;28;20453;-37
2023/07/03 11:06:16;;;;;;;7.53;1.98;;;;;;;19.14;56.41;101084.75;5073515;28;20028;-37
2023/07/03 11:09:09;;;;;;;12.85;2.45;;;;;;;19.44;57.47;101078.25;5072780;28;20027;-37
2023/07/03 11:11:35;;;;;;;8.13;2.25;;;;;;;19.83;55.64;101069.22;5072519;28;20067;-37
2023/07/03 11:14:04;;;;;;;7.72;2.50;;;;;;;20.03;55.05;101074.50;5072957;28;20029;-37
2023/07/03 11:16:52;;;;;;;9.82;2.47;;;;;;;20.07;54.30;101080.25;5072912;28;20426;-37
2023/07/03 11:19:39;;;;;;;9.13;2.55;;;;;;;20.16;55.61;101073.03;5072787;28;20028;-37
2023/07/03 11:22:24;;;;;;;7.55;2.13;;;;;;;20.45;52.97;101075.75;5072309;28;20444;-37
2023/07/03 11:25:16;;;;;;;6.53;2.17;;;;;;;20.75;52.44;101071.84;5072679;28;20067;-37
2023/07/03 11:27:44;;;;;;;7.38;2.08;;;;;;;20.97;50.65;101068.53;5073393;28;20090;-37
2023/07/03 11:30:11;;;;;;;8.88;2.67;;;;;;;21.16;53.58;101059.50;5071242;28;20043;-37
2023/07/03 11:32:37;;;;;;;5.97;2.10;;;;;;;21.07;49.63;101084.06;5072790;28;20024;-37
2023/07/03 11:35:04;;;;;;;5.80;1.92;;;;;;;20.79;48.93;101083.91;5072422;28;20177;-37
2023/07/03 11:37:43;;;;;;;8.50;2.00;;;;;;;20.55;50.08;101083.09;5073016;28;20415;-37
2023/07/03 11:40:26;;;;;;;8.52;2.00;;;;;;;20.32;51.03;101081.94;5072808;28;20107;-37